PA85 weather

Public forecast

Using degrees Fahrenheit for public forecast. Weather courtesy of forecast.io.

Closest aviation weather report (METAR) to Drewniany-Springmeadow Airport

Closest report is Heritage Field, 4.1 nm (7.5 km) SSW. Retrieved 2020/08/10 23:54 UTC (33 minutes ago):

KPTW 102354Z AUTO 17004KT 7SM FEW050 28/20 A2998 RMK AO2 SLP146 T02830200 10322 20278 56010

Closest aviation forecast (TAF) to Drewniany-Springmeadow Airport

Closest forecast is Reading Regional Carl A Spaatz Field, 20.2 nm (37.5 km) WNW. Retrieved 2020-08-11 00:42 UTC (0 seconds ago):

TAF KRDG 102340Z 1100/1124 VRB03KT P6SM SKC FM110800 00000KT 6SM BR FEW004 FM111300 18002KT P6SM SKC FM111900 19006KT P6SM FEW050